sensor_id;sensor_type;location;lat;lon;timestamp;temperature;humidity
59855;DHT22;45732;52.850;6.896;2023-09-07T00:01:29;19.40;99.90
59855;DHT22;45732;52.850;6.896;2023-09-07T00:03:55;19.30;99.90
59855;DHT22;45732;52.850;6.896;2023-09-07T00:06:21;19.30;99.90
59855;DHT22;45732;52.850;6.896;2023-09-07T00:08:47;19.30;99.90
59855;DHT22;45732;52.850;6.896;2023-09-07T00:11:13;19.20;99.90
59855;DHT22;45732;52.850;6.896;2023-09-07T00:13:38;19.20;99.90
59855;DHT22;45732;52.850;6.896;2023-09-07T00:16:05;19.20;99.90
59855;DHT22;45732;52.850;6.896;2023-09-07T00:18:32;19.20;99.90
59855;DHT22;45732;52.850;6.896;2023-09-07T00:21:00;19.10;99.90
59855;DHT22;45732;52.850;6.896;2023-09-07T00:23:26;19.10;99.90
59855;DHT22;45732;52.850;6.896;2023-09-07T00:25:52;19.00;99.90
59855;DHT22;45732;52.850;6.896;2023-09-07T00:28:18;19.00;99.90
59855;DHT22;45732;52.850;6.896;2023-09-07T00:30:44;19.00;99.90
59855;DHT22;45732;52.850;6.896;2023-09-07T00:33:10;19.00;99.90
59855;DHT22;45732;52.850;6.896;2023-09-07T00:35:36;19.00;99.90
59855;DHT22;45732;52.850;6.896;2023-09-07T00:38:02;18.90;99.90
59855;DHT22;45732;52.850;6.896;2023-09-07T00:40:28;19.00;99.90
59855;DHT22;45732;52.850;6.896;2023-09-07T00:42:54;18.90;99.90
59855;DHT22;45732;52.850;6.896;2023-09-07T00:45:20;18.80;99.90
59855;DHT22;45732;52.850;6.896;2023-09-07T00:47:46;18.80;99.90
59855;DHT22;45732;52.850;6.896;2023-09-07T00:50:11;18.80;99.90
59855;DHT22;45732;52.850;6.896;2023-09-07T00:52:41;18.80;99.90
59855;DHT22;45732;52.850;6.896;2023-09-07T00:55:08;18.80;99.90
59855;DHT22;45732;52.850;6.896;2023-09-07T00:57:35;18.70;99.90
59855;DHT22;45732;52.850;6.896;2023-09-07T01:00:05;18.70;99.90
59855;DHT22;45732;52.850;6.896;2023-09-07T01:02:33;18.70;99.90
59855;DHT22;45732;52.850;6.896;2023-09-07T01:04:59;18.60;99.90
59855;DHT22;45732;52.850;6.896;2023-09-07T01:07:30;18.60;99.90
59855;DHT22;45732;52.850;6.896;2023-09-07T01:09:58;18.50;99.90
59855;DHT22;45732;52.850;6.896;2023-09-07T01:12:24;18.50;99.90
59855;DHT22;45732;52.850;6.896;2023-09-07T01:14:50;18.50;99.90
59855;DHT22;45732;52.850;6.896;2023-09-07T01:17:16;18.50;99.90
59855;DHT22;45732;52.850;6.896;2023-09-07T01:19:42;18.50;99.90
59855;DHT22;45732;52.850;6.896;2023-09-07T01:22:09;18.40;99.90
59855;DHT22;45732;52.850;6.896;2023-09-07T01:24:37;18.40;99.90
59855;DHT22;45732;52.850;6.896;2023-09-07T01:27:04;18.40;99.90
59855;DHT22;45732;52.850;6.896;2023-09-07T01:29:31;18.30;99.90
59855;DHT22;45732;52.850;6.896;2023-09-07T01:31:57;18.40;99.90
59855;DHT22;45732;52.850;6.896;2023-09-07T01:34:23;18.30;99.90
59855;DHT22;45732;52.850;6.896;2023-09-07T01:36:50;18.30;99.90
59855;DHT22;45732;52.850;6.896;2023-09-07T01:39:15;18.30;99.90
59855;DHT22;45732;52.850;6.896;2023-09-07T01:41:42;18.30;99.90
59855;DHT22;45732;52.850;6.896;2023-09-07T01:44:08;18.30;99.90
59855;DHT22;45732;52.850;6.896;2023-09-07T01:46:34;18.20;99.90
59855;DHT22;45732;52.850;6.896;2023-09-07T01:49:01;18.20;99.90
59855;DHT22;45732;52.850;6.896;2023-09-07T01:51:27;18.20;99.90
59855;DHT22;45732;52.850;6.896;2023-09-07T01:53:53;18.20;99.90
59855;DHT22;45732;52.850;6.896;2023-09-07T01:56:19;18.20;99.90
59855;DHT22;45732;52.850;6.896;2023-09-07T01:58:45;18.20;99.90
59855;DHT22;45732;52.850;6.896;2023-09-07T02:01:24;18.20;99.90
59855;DHT22;45732;52.850;6.896;2023-09-07T02:03:51;18.20;99.90
59855;DHT22;45732;52.850;6.896;2023-09-07T02:06:16;18.20;99.90
59855;DHT22;45732;52.850;6.896;2023-09-07T02:08:43;18.20;99.90
59855;DHT22;45732;52.850;6.896;2023-09-07T02:11:08;18.20;99.90
59855;DHT22;45732;52.850;6.896;2023-09-07T02:13:34;18.20;99.90
59855;DHT22;45732;52.850;6.896;2023-09-07T02:16:06;18.20;99.90
59855;DHT22;45732;52.850;6.896;2023-09-07T02:18:32;18.20;99.90
59855;DHT22;45732;52.850;6.896;2023-09-07T02:21:05;18.10;99.90
59855;DHT22;45732;52.850;6.896;2023-09-07T02:23:31;18.10;99.90
59855;DHT22;45732;52.850;6.896;2023-09-07T02:25:58;18.00;99.90
59855;DHT22;45732;52.850;6.896;2023-09-07T02:28:26;17.90;99.90
59855;DHT22;45732;52.850;6.896;2023-09-07T02:30:52;17.90;99.90
59855;DHT22;45732;52.850;6.896;2023-09-07T02:33:18;17.90;99.90
59855;DHT22;45732;52.850;6.896;2023-09-07T02:35:44;17.90;99.90
59855;DHT22;45732;52.850;6.896;2023-09-07T02:38:10;17.90;99.90
59855;DHT22;45732;52.850;6.896;2023-09-07T02:40:43;18.00;99.90
59855;DHT22;45732;52.850;6.896;2023-09-07T02:43:09;18.00;99.90
59855;DHT22;45732;52.850;6.896;2023-09-07T02:45:35;18.00;99.90
59855;DHT22;45732;52.850;6.896;2023-09-07T02:48:01;18.00;99.90
59855;DHT22;45732;52.850;6.896;2023-09-07T02:50:29;18.00;99.90
59855;DHT22;45732;52.850;6.896;2023-09-07T02:52:55;18.00;99.90
59855;DHT22;45732;52.850;6.896;2023-09-07T02:55:20;18.10;99.90
59855;DHT22;45732;52.850;6.896;2023-09-07T02:57:46;18.10;99.90
59855;DHT22;45732;52.850;6.896;2023-09-07T03:00:12;18.10;99.90
59855;DHT22;45732;52.850;6.896;2023-09-07T03:02:38;18.10;99.90
59855;DHT22;45732;52.850;6.896;2023-09-07T03:05:04;18.10;99.90
59855;DHT22;45732;52.850;6.896;2023-09-07T03:07:32;18.10;99.90
59855;DHT22;45732;52.850;6.896;2023-09-07T03:09:58;18.00;99.90
59855;DHT22;45732;52.850;6.896;2023-09-07T03:12:24;18.00;99.90
59855;DHT22;45732;52.850;6.896;2023-09-07T03:14:49;18.00;99.90
59855;DHT22;45732;52.850;6.896;2023-09-07T03:17:16;18.00;99.90
59855;DHT22;45732;52.850;6.896;2023-09-07T03:19:43;18.00;99.90
59855;DHT22;45732;52.850;6.896;2023-09-07T03:22:09;18.10;99.90
59855;DHT22;45732;52.850;6.896;2023-09-07T03:24:35;18.10;99.90
59855;DHT22;45732;52.850;6.896;2023-09-07T03:27:01;18.10;99.90
59855;DHT22;45732;52.850;6.896;2023-09-07T03:29:26;18.00;99.90
59855;DHT22;45732;52.850;6.896;2023-09-07T03:31:52;18.10;99.90
59855;DHT22;45732;52.850;6.896;2023-09-07T03:34:18;18.00;99.90
59855;DHT22;45732;52.850;6.896;2023-09-07T03:36:45;18.00;99.90
59855;DHT22;45732;52.850;6.896;2023-09-07T03:39:10;18.00;99.90
59855;DHT22;45732;52.850;6.896;2023-09-07T03:41:36;18.00;99.90
59855;DHT22;45732;52.850;6.896;2023-09-07T03:44:02;18.00;99.90
59855;DHT22;45732;52.850;6.896;2023-09-07T03:46:28;18.00;99.90
59855;DHT22;45732;52.850;6.896;2023-09-07T03:48:53;18.00;99.90
59855;DHT22;45732;52.850;6.896;2023-09-07T03:51:19;18.00;99.90
59855;DHT22;45732;52.850;6.896;2023-09-07T03:53:45;18.00;99.90
59855;DHT22;45732;52.850;6.896;2023-09-07T03:56:11;18.00;99.90
59855;DHT22;45732;52.850;6.896;2023-09-07T03:58:37;18.00;99.90
59855;DHT22;45732;52.850;6.896;2023-09-07T04:01:02;17.90;99.90
59855;DHT22;45732;52.850;6.896;2023-09-07T04:03:28;17.90;99.90
59855;DHT22;45732;52.850;6.896;2023-09-07T04:05:54;17.80;99.90
59855;DHT22;45732;52.850;6.896;2023-09-07T04:08:19;17.80;99.90
59855;DHT22;45732;52.850;6.896;2023-09-07T04:10:45;17.80;99.90
59855;DHT22;45732;52.850;6.896;2023-09-07T04:13:11;17.80;99.90
59855;DHT22;45732;52.850;6.896;2023-09-07T04:15:44;17.70;99.90
59855;DHT22;45732;52.850;6.896;2023-09-07T04:18:13;17.70;99.90
59855;DHT22;45732;52.850;6.896;2023-09-07T04:20:40;17.70;99.90
59855;DHT22;45732;52.850;6.896;2023-09-07T04:23:06;17.70;99.90
59855;DHT22;45732;52.850;6.896;2023-09-07T04:25:32;17.70;99.90
59855;DHT22;45732;52.850;6.896;2023-09-07T04:28:01;17.60;99.90
59855;DHT22;45732;52.850;6.896;2023-09-07T04:30:27;17.60;99.90
59855;DHT22;45732;52.850;6.896;2023-09-07T04:32:52;17.60;99.90
59855;DHT22;45732;52.850;6.896;2023-09-07T04:35:18;17.60;99.90
59855;DHT22;45732;52.850;6.896;2023-09-07T04:37:44;17.60;99.90
59855;DHT22;45732;52.850;6.896;2023-09-07T04:40:11;17.60;99.90
59855;DHT22;45732;52.850;6.896;2023-09-07T04:42:37;17.60;99.90
59855;DHT22;45732;52.850;6.896;2023-09-07T04:45:06;17.60;99.90
59855;DHT22;45732;52.850;6.896;2023-09-07T04:47:31;17.50;99.90
59855;DHT22;45732;52.850;6.896;2023-09-07T04:49:58;17.50;99.90
59855;DHT22;45732;52.850;6.896;2023-09-07T04:52:23;17.50;99.90
59855;DHT22;45732;52.850;6.896;2023-09-07T04:54:49;17.50;99.90
59855;DHT22;45732;52.850;6.896;2023-09-07T04:57:18;17.50;99.90
59855;DHT22;45732;52.850;6.896;2023-09-07T04:59:43;17.50;99.90
59855;DHT22;45732;52.850;6.896;2023-09-07T05:02:09;17.50;99.90
59855;DHT22;45732;52.850;6.896;2023-09-07T05:04:35;17.50;99.90
59855;DHT22;45732;52.850;6.896;2023-09-07T05:07:01;17.50;99.90
59855;DHT22;45732;52.850;6.896;2023-09-07T05:09:27;17.50;99.90
59855;DHT22;45732;52.850;6.896;2023-09-07T05:11:55;17.40;99.90
59855;DHT22;45732;52.850;6.896;2023-09-07T05:14:21;17.40;99.90
59855;DHT22;45732;52.850;6.896;2023-09-07T05:16:47;17.40;99.90
59855;DHT22;45732;52.850;6.896;2023-09-07T05:19:14;17.50;99.90
59855;DHT22;45732;52.850;6.896;2023-09-07T05:21:40;17.40;99.90
59855;DHT22;45732;52.850;6.896;2023-09-07T05:24:06;17.40;99.90
59855;DHT22;45732;52.850;6.896;2023-09-07T05:26:31;17.50;99.90
59855;DHT22;45732;52.850;6.896;2023-09-07T05:28:57;17.50;99.90
59855;DHT22;45732;52.850;6.896;2023-09-07T05:31:23;17.50;99.90
59855;DHT22;45732;52.850;6.896;2023-09-07T05:33:48;17.50;99.90
59855;DHT22;45732;52.850;6.896;2023-09-07T05:36:14;17.50;99.90
59855;DHT22;45732;52.850;6.896;2023-09-07T05:38:40;17.50;99.90
59855;DHT22;45732;52.850;6.896;2023-09-07T05:41:06;17.50;99.90
59855;DHT22;45732;52.850;6.896;2023-09-07T05:43:32;17.50;99.90
59855;DHT22;45732;52.850;6.896;2023-09-07T05:45:58;17.60;99.90
59855;DHT22;45732;52.850;6.896;2023-09-07T05:48:23;17.60;99.90
59855;DHT22;45732;52.850;6.896;2023-09-07T05:50:49;17.60;99.90
59855;DHT22;45732;52.850;6.896;2023-09-07T05:53:15;17.60;99.90
59855;DHT22;45732;52.850;6.896;2023-09-07T05:55:41;17.60;99.90
59855;DHT22;45732;52.850;6.896;2023-09-07T05:58:07;17.60;99.90
59855;DHT22;45732;52.850;6.896;2023-09-07T06:00:37;17.60;99.90
59855;DHT22;45732;52.850;6.896;2023-09-07T06:03:05;17.60;99.90
59855;DHT22;45732;52.850;6.896;2023-09-07T06:05:31;17.70;99.90
59855;DHT22;45732;52.850;6.896;2023-09-07T06:07:57;17.70;99.90
59855;DHT22;45732;52.850;6.896;2023-09-07T06:10:23;17.70;99.90
59855;DHT22;45732;52.850;6.896;2023-09-07T06:12:48;17.80;99.90
59855;DHT22;45732;52.850;6.896;2023-09-07T06:15:15;17.80;99.90
59855;DHT22;45732;52.850;6.896;2023-09-07T06:17:40;17.80;99.90
59855;DHT22;45732;52.850;6.896;2023-09-07T06:20:06;17.90;99.90
59855;DHT22;45732;52.850;6.896;2023-09-07T06:22:32;18.00;99.90
59855;DHT22;45732;52.850;6.896;2023-09-07T06:24:58;18.00;99.90
59855;DHT22;45732;52.850;6.896;2023-09-07T06:27:24;18.00;99.90
59855;DHT22;45732;52.850;6.896;2023-09-07T06:29:49;18.10;99.90
59855;DHT22;45732;52.850;6.896;2023-09-07T06:32:16;18.20;99.90
59855;DHT22;45732;52.850;6.896;2023-09-07T06:34:42;18.20;99.90
59855;DHT22;45732;52.850;6.896;2023-09-07T06:37:08;18.30;99.90
59855;DHT22;45732;52.850;6.896;2023-09-07T06:39:34;18.30;99.90
59855;DHT22;45732;52.850;6.896;2023-09-07T06:41:59;18.40;99.90
59855;DHT22;45732;52.850;6.896;2023-09-07T06:44:25;18.40;99.90
59855;DHT22;45732;52.850;6.896;2023-09-07T06:46:51;18.50;99.90
59855;DHT22;45732;52.850;6.896;2023-09-07T06:49:17;18.60;99.90
59855;DHT22;45732;52.850;6.896;2023-09-07T06:51:42;18.70;99.90
59855;DHT22;45732;52.850;6.896;2023-09-07T06:54:08;18.70;99.90
59855;DHT22;45732;52.850;6.896;2023-09-07T06:56:34;18.80;99.90
59855;DHT22;45732;52.850;6.896;2023-09-07T06:59:00;18.80;99.90
59855;DHT22;45732;52.850;6.896;2023-09-07T07:01:26;18.90;99.90
59855;DHT22;45732;52.850;6.896;2023-09-07T07:03:52;19.00;99.90
59855;DHT22;45732;52.850;6.896;2023-09-07T07:06:18;19.10;99.90
59855;DHT22;45732;52.850;6.896;2023-09-07T07:08:44;19.10;99.90
59855;DHT22;45732;52.850;6.896;2023-09-07T07:11:10;19.20;99.90
59855;DHT22;45732;52.850;6.896;2023-09-07T07:13:36;19.30;99.90
59855;DHT22;45732;52.850;6.896;2023-09-07T07:16:02;19.40;99.90
59855;DHT22;45732;52.850;6.896;2023-09-07T07:18:29;19.50;99.90
59855;DHT22;45732;52.850;6.896;2023-09-07T07:20:55;19.50;99.90
59855;DHT22;45732;52.850;6.896;2023-09-07T07:23:20;19.60;99.90
59855;DHT22;45732;52.850;6.896;2023-09-07T07:25:46;19.60;99.90
59855;DHT22;45732;52.850;6.896;2023-09-07T07:28:12;19.70;99.90
59855;DHT22;45732;52.850;6.896;2023-09-07T07:30:39;19.80;99.90
59855;DHT22;45732;52.850;6.896;2023-09-07T07:33:08;19.90;99.90
59855;DHT22;45732;52.850;6.896;2023-09-07T07:35:36;19.90;99.90
59855;DHT22;45732;52.850;6.896;2023-09-07T07:38:03;20.00;99.90
59855;DHT22;45732;52.850;6.896;2023-09-07T07:40:33;20.10;99.90
59855;DHT22;45732;52.850;6.896;2023-09-07T07:42:59;20.10;99.90
59855;DHT22;45732;52.850;6.896;2023-09-07T07:45:25;20.20;99.90
59855;DHT22;45732;52.850;6.896;2023-09-07T07:47:51;20.30;99.90
59855;DHT22;45732;52.850;6.896;2023-09-07T07:50:18;20.30;99.90
59855;DHT22;45732;52.850;6.896;2023-09-07T07:52:44;20.40;99.90
59855;DHT22;45732;52.850;6.896;2023-09-07T07:55:11;20.50;99.90
59855;DHT22;45732;52.850;6.896;2023-09-07T07:57:37;20.60;99.90
59855;DHT22;45732;52.850;6.896;2023-09-07T08:00:04;20.70;99.90
59855;DHT22;45732;52.850;6.896;2023-09-07T08:02:30;20.70;99.90
59855;DHT22;45732;52.850;6.896;2023-09-07T08:04:57;20.80;99.90
59855;DHT22;45732;52.850;6.896;2023-09-07T08:07:23;20.90;99.90
59855;DHT22;45732;52.850;6.896;2023-09-07T08:09:49;20.90;99.90
59855;DHT22;45732;52.850;6.896;2023-09-07T08:12:16;21.00;99.90
59855;DHT22;45732;52.850;6.896;2023-09-07T08:14:42;21.10;99.90
59855;DHT22;45732;52.850;6.896;2023-09-07T08:17:08;21.10;99.90
59855;DHT22;45732;52.850;6.896;2023-09-07T08:19:34;21.30;99.90
59855;DHT22;45732;52.850;6.896;2023-09-07T08:22:00;21.30;99.90
59855;DHT22;45732;52.850;6.896;2023-09-07T08:24:29;21.40;99.90
59855;DHT22;45732;52.850;6.896;2023-09-07T08:26:55;21.40;99.90
59855;DHT22;45732;52.850;6.896;2023-09-07T08:29:23;21.50;99.90
59855;DHT22;45732;52.850;6.896;2023-09-07T08:31:53;21.60;99.90
59855;DHT22;45732;52.850;6.896;2023-09-07T08:34:20;21.60;99.90
59855;DHT22;45732;52.850;6.896;2023-09-07T08:36:47;21.70;99.90
59855;DHT22;45732;52.850;6.896;2023-09-07T08:39:16;21.80;99.90
59855;DHT22;45732;52.850;6.896;2023-09-07T08:41:43;21.80;99.90
59855;DHT22;45732;52.850;6.896;2023-09-07T08:44:18;21.90;99.90
59855;DHT22;45732;52.850;6.896;2023-09-07T08:46:50;22.00;99.90
59855;DHT22;45732;52.850;6.896;2023-09-07T08:49:17;22.10;99.90
59855;DHT22;45732;52.850;6.896;2023-09-07T08:51:49;22.10;99.90
59855;DHT22;45732;52.850;6.896;2023-09-07T08:54:15;22.20;99.90
59855;DHT22;45732;52.850;6.896;2023-09-07T08:56:41;22.30;99.90
59855;DHT22;45732;52.850;6.896;2023-09-07T08:59:07;22.40;99.90
59855;DHT22;45732;52.850;6.896;2023-09-07T09:01:33;22.40;99.90
59855;DHT22;45732;52.850;6.896;2023-09-07T09:03:59;22.50;99.90
59855;DHT22;45732;52.850;6.896;2023-09-07T09:06:25;22.50;99.90
59855;DHT22;45732;52.850;6.896;2023-09-07T09:08:53;22.60;99.90
59855;DHT22;45732;52.850;6.896;2023-09-07T09:11:20;22.60;99.90
59855;DHT22;45732;52.850;6.896;2023-09-07T09:13:47;22.60;99.90
59855;DHT22;45732;52.850;6.896;2023-09-07T09:16:13;22.60;99.90
59855;DHT22;45732;52.850;6.896;2023-09-07T09:18:56;22.70;99.90
59855;DHT22;45732;52.850;6.896;2023-09-07T09:21:23;22.80;99.90
59855;DHT22;45732;52.850;6.896;2023-09-07T09:23:52;22.90;99.90
59855;DHT22;45732;52.850;6.896;2023-09-07T09:26:19;22.90;99.90
59855;DHT22;45732;52.850;6.896;2023-09-07T09:28:45;23.00;99.90
59855;DHT22;45732;52.850;6.896;2023-09-07T09:31:12;23.10;99.90
59855;DHT22;45732;52.850;6.896;2023-09-07T09:33:42;23.10;99.90
59855;DHT22;45732;52.850;6.896;2023-09-07T09:36:08;23.10;99.90
59855;DHT22;45732;52.850;6.896;2023-09-07T09:38:35;23.20;99.90
59855;DHT22;45732;52.850;6.896;2023-09-07T09:41:01;23.30;99.90
59855;DHT22;45732;52.850;6.896;2023-09-07T09:43:28;23.30;99.90
59855;DHT22;45732;52.850;6.896;2023-09-07T09:45:55;23.40;99.90
59855;DHT22;45732;52.850;6.896;2023-09-07T09:48:22;23.40;99.90
59855;DHT22;45732;52.850;6.896;2023-09-07T09:50:48;23.50;99.90
59855;DHT22;45732;52.850;6.896;2023-09-07T09:53:18;23.60;99.90
59855;DHT22;45732;52.850;6.896;2023-09-07T09:55:49;23.60;99.90
59855;DHT22;45732;52.850;6.896;2023-09-07T09:58:18;23.60;99.90
59855;DHT22;45732;52.850;6.896;2023-09-07T10:00:49;23.70;99.90
59855;DHT22;45732;52.850;6.896;2023-09-07T10:05:45;23.80;99.90
59855;DHT22;45732;52.850;6.896;2023-09-07T10:08:16;23.90;99.90
59855;DHT22;45732;52.850;6.896;2023-09-07T10:10:44;24.00;99.90
59855;DHT22;45732;52.850;6.896;2023-09-07T10:13:14;24.00;99.90
59855;DHT22;45732;52.850;6.896;2023-09-07T10:15:40;24.10;99.90
59855;DHT22;45732;52.850;6.896;2023-09-07T10:18:13;24.10;99.90
59855;DHT22;45732;52.850;6.896;2023-09-07T10:20:50;24.20;99.90
59855;DHT22;45732;52.850;6.896;2023-09-07T10:23:16;24.20;99.90
59855;DHT22;45732;52.850;6.896;2023-09-07T10:25:41;24.30;99.90
59855;DHT22;45732;52.850;6.896;2023-09-07T10:28:25;24.40;99.90
59855;DHT22;45732;52.850;6.896;2023-09-07T10:31:04;24.40;99.90
59855;DHT22;45732;52.850;6.896;2023-09-07T10:33:34;24.50;99.90
59855;DHT22;45732;52.850;6.896;2023-09-07T10:36:01;24.50;99.90
59855;DHT22;45732;52.850;6.896;2023-09-07T10:38:30;24.60;99.90
59855;DHT22;45732;52.850;6.896;2023-09-07T10:41:00;24.70;99.90
59855;DHT22;45732;52.850;6.896;2023-09-07T10:43:31;24.70;99.90
59855;DHT22;45732;52.850;6.896;2023-09-07T10:45:58;24.70;99.90
59855;DHT22;45732;52.850;6.896;2023-09-07T10:48:27;24.80;99.90
59855;DHT22;45732;52.850;6.896;2023-09-07T10:50:54;24.80;99.90
59855;DHT22;45732;52.850;6.896;2023-09-07T10:53:32;24.90;99.90
59855;DHT22;45732;52.850;6.896;2023-09-07T10:56:03;24.90;99.90
59855;DHT22;45732;52.850;6.896;2023-09-07T10:58:33;24.90;99.90
59855;DHT22;45732;52.850;6.896;2023-09-07T11:00:59;25.00;99.90
59855;DHT22;45732;52.850;6.896;2023-09-07T11:03:26;25.10;99.90
59855;DHT22;45732;52.850;6.896;2023-09-07T11:05:59;25.10;99.90
59855;DHT22;45732;52.850;6.896;2023-09-07T11:08:25;25.10;99.90
59855;DHT22;45732;52.850;6.896;2023-09-07T11:10:51;25.10;99.90
59855;DHT22;45732;52.850;6.896;2023-09-07T11:13:20;25.10;99.90
59855;DHT22;45732;52.850;6.896;2023-09-07T11:15:46;25.10;99.90
59855;DHT22;45732;52.850;6.896;2023-09-07T11:18:12;25.20;99.90
59855;DHT22;45732;52.850;6.896;2023-09-07T11:20:38;25.30;99.90
59855;DHT22;45732;52.850;6.896;2023-09-07T11:23:05;25.30;99.90
59855;DHT22;45732;52.850;6.896;2023-09-07T11:25:36;25.30;99.90
59855;DHT22;45732;52.850;6.896;2023-09-07T11:28:06;25.40;99.90
59855;DHT22;45732;52.850;6.896;2023-09-07T11:30:35;25.40;99.90
59855;DHT22;45732;52.850;6.896;2023-09-07T11:33:05;25.40;99.90
59855;DHT22;45732;52.850;6.896;2023-09-07T11:35:32;25.50;99.90
59855;DHT22;45732;52.850;6.896;2023-09-07T11:38:02;25.50;99.90
59855;DHT22;45732;52.850;6.896;2023-09-07T11:40:29;25.50;99.90
59855;DHT22;45732;52.850;6.896;2023-09-07T11:42:55;25.50;99.90
59855;DHT22;45732;52.850;6.896;2023-09-07T11:45:21;25.50;99.90
59855;DHT22;45732;52.850;6.896;2023-09-07T11:47:47;25.50;99.90
59855;DHT22;45732;52.850;6.896;2023-09-07T11:50:13;25.60;99.90
59855;DHT22;45732;52.850;6.896;2023-09-07T11:52:38;25.60;99.90
59855;DHT22;45732;52.850;6.896;2023-09-07T11:55:04;25.50;99.90
59855;DHT22;45732;52.850;6.896;2023-09-07T11:57:30;25.60;99.90
59855;DHT22;45732;52.850;6.896;2023-09-07T11:59:56;25.60;99.90
59855;DHT22;45732;52.850;6.896;2023-09-07T12:02:22;25.60;99.90
59855;DHT22;45732;52.850;6.896;2023-09-07T12:04:48;25.60;99.90
59855;DHT22;45732;52.850;6.896;2023-09-07T12:07:14;25.60;99.90
59855;DHT22;45732;52.850;6.896;2023-09-07T12:09:40;25.60;99.90
59855;DHT22;45732;52.850;6.896;2023-09-07T12:12:06;25.60;99.90
59855;DHT22;45732;52.850;6.896;2023-09-07T12:14:32;25.50;99.90
59855;DHT22;45732;52.850;6.896;2023-09-07T12:16:57;25.50;99.90
59855;DHT22;45732;52.850;6.896;2023-09-07T12:19:23;25.60;99.90
59855;DHT22;45732;52.850;6.896;2023-09-07T12:21:51;25.50;99.90
59855;DHT22;45732;52.850;6.896;2023-09-07T12:24:17;25.50;99.90
59855;DHT22;45732;52.850;6.896;2023-09-07T12:26:42;25.50;99.90
59855;DHT22;45732;52.850;6.896;2023-09-07T12:29:08;25.50;99.90
59855;DHT22;45732;52.850;6.896;2023-09-07T12:31:34;25.50;99.90
59855;DHT22;45732;52.850;6.896;2023-09-07T12:33:59;25.50;99.90
59855;DHT22;45732;52.850;6.896;2023-09-07T12:36:25;25.50;99.90
59855;DHT22;45732;52.850;6.896;2023-09-07T12:38:55;25.50;99.90
59855;DHT22;45732;52.850;6.896;2023-09-07T12:41:30;25.50;99.90
59855;DHT22;45732;52.850;6.896;2023-09-07T12:43:58;25.50;99.90
59855;DHT22;45732;52.850;6.896;2023-09-07T12:46:24;25.50;99.90
59855;DHT22;45732;52.850;6.896;2023-09-07T12:48:50;25.40;99.90
59855;DHT22;45732;52.850;6.896;2023-09-07T12:51:15;25.40;99.90
59855;DHT22;45732;52.850;6.896;2023-09-07T12:53:41;25.50;99.90
59855;DHT22;45732;52.850;6.896;2023-09-07T12:56:07;25.40;99.90
59855;DHT22;45732;52.850;6.896;2023-09-07T12:58:33;25.50;99.90
59855;DHT22;45732;52.850;6.896;2023-09-07T13:00:58;25.50;99.90
59855;DHT22;45732;52.850;6.896;2023-09-07T13:03:24;25.50;99.90
59855;DHT22;45732;52.850;6.896;2023-09-07T13:05:50;25.40;99.90
59855;DHT22;45732;52.850;6.896;2023-09-07T13:08:15;25.50;99.90
59855;DHT22;45732;52.850;6.896;2023-09-07T13:10:41;25.50;99.90
59855;DHT22;45732;52.850;6.896;2023-09-07T13:13:07;25.40;99.90
59855;DHT22;45732;52.850;6.896;2023-09-07T13:15:33;25.50;99.90
59855;DHT22;45732;52.850;6.896;2023-09-07T13:17:59;25.50;99.90
59855;DHT22;45732;52.850;6.896;2023-09-07T13:20:25;25.50;99.90
59855;DHT22;45732;52.850;6.896;2023-09-07T13:22:51;25.60;99.90
59855;DHT22;45732;52.850;6.896;2023-09-07T13:25:17;25.60;99.90
59855;DHT22;45732;52.850;6.896;2023-09-07T13:27:43;25.70;99.90
59855;DHT22;45732;52.850;6.896;2023-09-07T13:30:09;25.60;99.90
59855;DHT22;45732;52.850;6.896;2023-09-07T13:32:35;25.70;99.90
59855;DHT22;45732;52.850;6.896;2023-09-07T13:35:01;25.70;99.90
59855;DHT22;45732;52.850;6.896;2023-09-07T13:37:26;25.70;99.90
59855;DHT22;45732;52.850;6.896;2023-09-07T13:39:52;25.80;99.90
59855;DHT22;45732;52.850;6.896;2023-09-07T13:42:18;25.70;99.90
59855;DHT22;45732;52.850;6.896;2023-09-07T13:44:43;25.80;99.90
59855;DHT22;45732;52.850;6.896;2023-09-07T13:47:11;25.80;99.90
59855;DHT22;45732;52.850;6.896;2023-09-07T13:49:36;25.80;99.90
59855;DHT22;45732;52.850;6.896;2023-09-07T13:52:02;25.80;99.90
59855;DHT22;45732;52.850;6.896;2023-09-07T13:54:28;25.80;99.90
59855;DHT22;45732;52.850;6.896;2023-09-07T13:56:55;25.80;99.90
59855;DHT22;45732;52.850;6.896;2023-09-07T13:59:21;25.80;99.90
59855;DHT22;45732;52.850;6.896;2023-09-07T14:01:47;25.70;99.90
59855;DHT22;45732;52.850;6.896;2023-09-07T14:04:14;25.80;99.90
59855;DHT22;45732;52.850;6.896;2023-09-07T14:06:40;25.70;99.90
59855;DHT22;45732;52.850;6.896;2023-09-07T14:09:06;25.80;99.90
59855;DHT22;45732;52.850;6.896;2023-09-07T14:11:32;25.80;99.90
59855;DHT22;45732;52.850;6.896;2023-09-07T14:13:59;25.80;99.90
59855;DHT22;45732;52.850;6.896;2023-09-07T14:16:24;25.80;99.90
59855;DHT22;45732;52.850;6.896;2023-09-07T14:18:50;25.80;99.90
59855;DHT22;45732;52.850;6.896;2023-09-07T14:21:17;25.80;99.90
59855;DHT22;45732;52.850;6.896;2023-09-07T14:23:43;25.80;99.90
59855;DHT22;45732;52.850;6.896;2023-09-07T14:26:09;25.90;99.90
59855;DHT22;45732;52.850;6.896;2023-09-07T14:28:35;25.80;99.90
59855;DHT22;45732;52.850;6.896;2023-09-07T14:31:02;25.90;99.90
59855;DHT22;45732;52.850;6.896;2023-09-07T14:33:36;25.90;99.90
59855;DHT22;45732;52.850;6.896;2023-09-07T14:36:07;25.90;99.90
59855;DHT22;45732;52.850;6.896;2023-09-07T14:38:32;25.90;99.90
59855;DHT22;45732;52.850;6.896;2023-09-07T14:41:05;25.90;99.90
59855;DHT22;45732;52.850;6.896;2023-09-07T14:43:31;25.90;99.90
59855;DHT22;45732;52.850;6.896;2023-09-07T14:45:56;26.00;99.90
59855;DHT22;45732;52.850;6.896;2023-09-07T14:48:22;26.00;99.90
59855;DHT22;45732;52.850;6.896;2023-09-07T14:50:48;26.00;99.90
59855;DHT22;45732;52.850;6.896;2023-09-07T14:53:13;26.10;99.90
59855;DHT22;45732;52.850;6.896;2023-09-07T14:55:39;26.10;99.90
59855;DHT22;45732;52.850;6.896;2023-09-07T14:58:05;26.20;99.90
59855;DHT22;45732;52.850;6.896;2023-09-07T15:00:34;26.20;99.90
59855;DHT22;45732;52.850;6.896;2023-09-07T15:03:00;26.30;99.90
59855;DHT22;45732;52.850;6.896;2023-09-07T15:05:25;26.30;99.90
59855;DHT22;45732;52.850;6.896;2023-09-07T15:07:51;26.30;99.90
59855;DHT22;45732;52.850;6.896;2023-09-07T15:10:17;26.40;99.90
59855;DHT22;45732;52.850;6.896;2023-09-07T15:12:42;26.50;99.90
59855;DHT22;45732;52.850;6.896;2023-09-07T15:15:08;26.50;99.90
59855;DHT22;45732;52.850;6.896;2023-09-07T15:17:38;26.60;99.90
59855;DHT22;45732;52.850;6.896;2023-09-07T15:20:06;26.60;99.90
59855;DHT22;45732;52.850;6.896;2023-09-07T15:22:32;26.70;99.90
59855;DHT22;45732;52.850;6.896;2023-09-07T15:24:59;26.70;99.90
59855;DHT22;45732;52.850;6.896;2023-09-07T15:27:26;26.80;99.90
59855;DHT22;45732;52.850;6.896;2023-09-07T15:29:52;26.80;99.90